Time,TemperatureF,DewpointF,PressureIn,WindDirection,WindDirectionDegrees,WindSpeedMPH,WindSpeedGustMPH,Humidity,HourlyPrecipIn,Conditions,Clouds,dailyrainin,SolarRadiationWatts/m^2,SoftwareType,DateUTC
2013-02-12 00:01:00,61.0,51.0,-100.00,WSW,251,4.0,16.0,70,0.00,,,0.16,0.000000,,2013-02-12 05:01:00,
2013-02-12 00:11:00,61.0,51.0,-100.00,WSW,251,4.0,16.0,70,0.00,,,0.16,0.000000,,2013-02-12 05:11:00,
2013-02-12 00:21:00,61.0,51.0,-100.00,WSW,251,4.0,16.0,70,0.00,,,0.16,0.000000,,2013-02-12 05:21:00,
2013-02-12 00:52:00,60.0,50.0,-100.00,WSW,254,4.0,10.0,70,0.00,,,0.16,0.000000,,2013-02-12 05:52:00,
2013-02-12 01:52:00,61.0,51.0,-100.00,WSW,255,5.0,12.0,69,0.00,,,0.16,0.000000,,2013-02-12 06:52:00,
2013-02-12 02:12:00,61.0,51.0,-100.00,WSW,255,5.0,12.0,69,0.00,,,0.16,0.000000,,2013-02-12 07:12:00,
2013-02-12 02:21:00,61.0,51.0,-100.00,WSW,255,5.0,12.0,69,0.00,,,0.16,0.000000,,2013-02-12 07:21:00,
2013-02-12 02:52:00,61.0,50.0,-100.00,West,261,5.0,13.0,67,0.00,,,0.16,0.000000,,2013-02-12 07:52:00,
2013-02-12 03:01:00,61.0,50.0,-100.00,West,261,5.0,13.0,67,0.00,,,0.16,0.000000,,2013-02-12 08:01:00,
2013-02-12 03:11:00,61.0,50.0,-100.00,West,261,5.0,13.0,67,0.00,,,0.16,0.000000,,2013-02-12 08:11:00,
2013-02-12 03:22:00,61.0,50.0,-100.00,West,261,5.0,13.0,67,0.00,,,0.16,0.000000,,2013-02-12 08:22:00,
2013-02-12 03:52:00,61.0,50.0,-100.00,West,261,5.0,13.0,66,0.00,,,0.16,0.000000,,2013-02-12 08:52:00,
2013-02-12 04:02:00,61.0,50.0,-100.00,West,261,5.0,13.0,66,0.00,,,0.16,0.000000,,2013-02-12 09:02:00,
2013-02-12 04:11:00,61.0,50.0,-100.00,West,261,5.0,13.0,66,0.00,,,0.16,0.000000,,2013-02-12 09:11:00,
2013-02-12 04:22:00,61.0,50.0,-100.00,West,261,5.0,13.0,66,0.00,,,0.16,0.000000,,2013-02-12 09:22:00,
2013-02-12 04:52:00,60.0,49.0,-100.00,West,261,4.0,11.0,67,0.00,,,0.16,0.000000,,2013-02-12 09:52:00,
2013-02-12 05:02:00,60.0,49.0,-100.00,West,261,4.0,11.0,67,0.00,,,0.16,0.000000,,2013-02-12 10:02:00,
2013-02-12 05:11:00,60.0,49.0,-100.00,West,261,4.0,11.0,67,0.00,,,0.16,0.000000,,2013-02-12 10:11:00,
2013-02-12 05:21:00,60.0,49.0,-100.00,West,261,4.0,11.0,67,0.00,,,0.16,0.000000,,2013-02-12 10:21:00,
2013-02-12 05:52:00,58.0,47.0,-100.00,West,260,4.0,9.0,67,0.00,,,0.16,0.000000,,2013-02-12 10:52:00,
2013-02-12 06:02:00,58.0,47.0,-100.00,West,260,4.0,9.0,67,0.00,,,0.16,0.000000,,2013-02-12 11:02:00,
2013-02-12 06:11:00,58.0,47.0,-100.00,West,260,4.0,9.0,67,0.00,,,0.16,0.000000,,2013-02-12 11:11:00,
2013-02-12 06:22:00,58.0,47.0,-100.00,West,260,4.0,9.0,67,0.00,,,0.16,0.000000,,2013-02-12 11:22:00,
2013-02-12 06:53:00,56.0,46.0,-100.00,West,260,3.0,8.0,69,0.00,,,0.16,0.000000,,2013-02-12 11:53:00,
2013-02-12 07:53:00,54.0,45.0,-100.00,West,262,3.0,7.0,71,0.00,,,0.16,7.000000,,2013-02-12 12:53:00,
2013-02-12 08:52:00,56.0,46.0,-100.00,West,280,3.0,7.0,69,0.00,,,0.16,58.000000,,2013-02-12 13:52:00,
2013-02-12 09:01:00,56.0,46.0,-100.00,West,280,3.0,7.0,69,0.00,,,0.16,58.000000,,2013-02-12 14:01:00,
2013-02-12 09:12:00,56.0,46.0,-100.00,West,280,3.0,7.0,69,0.00,,,0.16,58.000000,,2013-02-12 14:12:00,
2013-02-12 09:22:00,56.0,46.0,-100.00,West,280,3.0,7.0,69,0.00,,,0.16,58.000000,,2013-02-12 14:22:00,
2013-02-12 09:52:00,58.0,46.0,-100.00,WNW,288,4.0,9.0,64,0.00,,,0.16,149.000000,,2013-02-12 14:52:00,
2013-02-12 10:02:00,58.0,46.0,-100.00,WNW,288,4.0,9.0,64,0.00,,,0.16,149.000000,,2013-02-12 15:02:00,
2013-02-12 10:11:00,58.0,46.0,-100.00,WNW,288,4.0,9.0,64,0.00,,,0.16,149.000000,,2013-02-12 15:11:00,
2013-02-12 10:21:00,58.0,46.0,-100.00,WNW,288,4.0,9.0,64,0.00,,,0.16,149.000000,,2013-02-12 15:21:00,
2013-02-12 10:52:00,58.0,43.0,-100.00,WNW,292,4.0,13.0,58,0.00,,,0.15,198.000000,,2013-02-12 15:52:00,
2013-02-12 11:02:00,58.0,43.0,-100.00,WNW,292,4.0,13.0,58,0.00,,,0.15,198.000000,,2013-02-12 16:02:00,
2013-02-12 11:11:00,58.0,43.0,-100.00,WNW,292,4.0,13.0,58,0.00,,,0.15,198.000000,,2013-02-12 16:11:00,
2013-02-12 11:22:00,58.0,43.0,-100.00,WNW,292,4.0,13.0,58,0.00,,,0.15,198.000000,,2013-02-12 16:22:00,
2013-02-12 11:52:00,60.0,42.0,-100.00,NNW,333,4.0,9.0,52,0.00,,,0.14,264.000000,,2013-02-12 16:52:00,
2013-02-12 12:01:00,60.0,42.0,-100.00,NNW,333,4.0,9.0,52,0.00,,,0.14,264.000000,,2013-02-12 17:01:00,
2013-02-12 12:12:00,60.0,42.0,-100.00,NNW,333,4.0,9.0,52,0.00,,,0.14,264.000000,,2013-02-12 17:12:00,
2013-02-12 12:21:00,60.0,42.0,-100.00,NNW,333,4.0,9.0,52,0.00,,,0.14,264.000000,,2013-02-12 17:21:00,
2013-02-12 12:52:00,58.0,40.0,-100.00,West,278,4.0,9.0,52,0.00,,,0.13,266.000000,,2013-02-12 17:52:00,
2013-02-12 13:02:00,58.0,40.0,-100.00,West,278,4.0,9.0,52,0.00,,,0.13,266.000000,,2013-02-12 18:02:00,
2013-02-12 13:12:00,58.0,40.0,-100.00,West,278,4.0,9.0,52,0.00,,,0.13,266.000000,,2013-02-12 18:12:00,
2013-02-12 13:23:00,58.0,40.0,-100.00,West,278,4.0,9.0,52,0.00,,,0.13,266.000000,,2013-02-12 18:23:00,
2013-02-12 13:52:00,63.0,42.0,-100.00,West,277,3.0,6.0,46,0.00,,,0.07,420.000000,,2013-02-12 18:52:00,
2013-02-12 14:02:00,63.0,42.0,-100.00,West,277,3.0,6.0,46,0.00,,,0.07,420.000000,,2013-02-12 19:02:00,
2013-02-12 14:11:00,63.0,42.0,-100.00,West,277,3.0,6.0,46,0.00,,,0.07,420.000000,,2013-02-12 19:11:00,
2013-02-12 14:21:00,63.0,42.0,-100.00,West,277,3.0,6.0,46,0.00,,,0.07,420.000000,,2013-02-12 19:21:00,
2013-02-12 14:52:00,64.0,41.0,-100.00,NW,313,4.0,9.0,43,0.00,,,-99.99,639.000000,,2013-02-12 19:52:00,
2013-02-12 15:01:00,64.0,41.0,-100.00,NW,313,4.0,9.0,43,0.00,,,-99.99,639.000000,,2013-02-12 20:01:00,
2013-02-12 15:11:00,64.0,41.0,-100.00,NW,313,4.0,9.0,43,0.00,,,-99.99,639.000000,,2013-02-12 20:11:00,
2013-02-12 15:21:00,64.0,41.0,-100.00,NW,313,4.0,9.0,43,0.00,,,-99.99,639.000000,,2013-02-12 20:21:00,
2013-02-12 15:52:00,60.0,43.0,-100.00,East,90,4.0,6.0,54,0.00,,,0.05,470.000000,,2013-02-12 20:52:00,
2013-02-12 16:02:00,60.0,43.0,-100.00,East,90,4.0,6.0,54,0.00,,,0.05,470.000000,,2013-02-12 21:02:00,
2013-02-12 16:11:00,60.0,43.0,-100.00,East,90,4.0,6.0,54,0.00,,,0.05,470.000000,,2013-02-12 21:11:00,
2013-02-12 16:21:00,60.0,43.0,-100.00,East,90,4.0,6.0,54,0.00,,,0.05,470.000000,,2013-02-12 21:21:00,
2013-02-12 16:52:00,58.0,43.0,-100.00,SE,125,3.0,6.0,58,0.00,,,0.00,306.000000,,2013-02-12 21:52:00,
2013-02-12 17:01:00,58.0,43.0,-100.00,SE,125,3.0,6.0,58,0.00,,,0.00,306.000000,,2013-02-12 22:01:00,
2013-02-12 17:12:00,58.0,43.0,-100.00,SE,125,3.0,6.0,58,0.00,,,0.00,306.000000,,2013-02-12 22:12:00,
2013-02-12 17:21:00,58.0,43.0,-100.00,SE,125,3.0,6.0,58,0.00,,,0.00,306.000000,,2013-02-12 22:21:00,
2013-02-12 17:52:00,55.0,42.0,-100.00,SSE,148,3.0,5.0,61,0.00,,,0.00,54.000000,,2013-02-12 22:52:00,
2013-02-12 18:02:00,55.0,42.0,-100.00,SSE,148,3.0,5.0,61,0.00,,,0.00,54.000000,,2013-02-12 23:02:00,
2013-02-12 18:11:00,55.0,42.0,-100.00,SSE,148,3.0,5.0,61,0.00,,,0.00,54.000000,,2013-02-12 23:11:00,
2013-02-12 18:21:00,55.0,42.0,-100.00,SSE,148,3.0,5.0,61,0.00,,,0.00,54.000000,,2013-02-12 23:21:00,
2013-02-12 18:52:00,52.0,41.0,-100.00,SW,228,1.0,5.0,65,0.00,,,0.00,3.000000,,2013-02-12 23:52:00,
2013-02-12 19:02:00,52.0,41.0,-100.00,SW,228,1.0,5.0,65,0.00,,,0.00,3.000000,,2013-02-13 00:02:00,
2013-02-12 19:11:00,52.0,41.0,-100.00,SW,228,1.0,5.0,65,0.00,,,0.00,3.000000,,2013-02-13 00:11:00,
2013-02-12 19:22:00,52.0,41.0,-100.00,SW,228,1.0,5.0,65,0.00,,,0.00,3.000000,,2013-02-13 00:22:00,
2013-02-12 19:52:00,51.0,41.0,-100.00,WSW,250,2.0,4.0,68,0.00,,,0.00,0.000000,,2013-02-13 00:52:00,
2013-02-12 20:01:00,51.0,41.0,-100.00,WSW,250,2.0,4.0,68,0.00,,,0.00,0.000000,,2013-02-13 01:01:00,
2013-02-12 20:11:00,51.0,41.0,-100.00,WSW,250,2.0,4.0,68,0.00,,,0.00,0.000000,,2013-02-13 01:11:00,
2013-02-12 20:21:00,51.0,41.0,-100.00,WSW,250,2.0,4.0,68,0.00,,,0.00,0.000000,,2013-02-13 01:21:00,
2013-02-12 21:11:00,51.0,41.0,-100.00,SW,218,1.0,4.0,68,0.00,,,0.00,0.000000,,2013-02-13 02:11:00,
2013-02-12 21:22:00,51.0,41.0,-100.00,SW,218,1.0,4.0,68,0.00,,,0.00,0.000000,,2013-02-13 02:22:00,
2013-02-12 21:52:00,52.0,42.0,-100.00,South,172,1.0,3.0,68,0.00,,,0.00,0.000000,,2013-02-13 02:52:00,
2013-02-12 22:02:00,52.0,42.0,-100.00,South,172,1.0,3.0,68,0.00,,,0.00,0.000000,,2013-02-13 03:02:00,
2013-02-12 22:12:00,52.0,42.0,-100.00,South,172,1.0,3.0,68,0.00,,,0.00,0.000000,,2013-02-13 03:12:00,
2013-02-12 22:21:00,52.0,42.0,-100.00,South,172,1.0,3.0,68,0.00,,,0.00,0.000000,,2013-02-13 03:21:00,
2013-02-12 22:52:00,51.0,42.0,-100.00,WNW,293,1.0,2.0,70,0.00,,,0.00,0.000000,,2013-02-13 03:52:00,
2013-02-12 23:01:00,51.0,42.0,-100.00,WNW,293,1.0,2.0,70,0.00,,,0.00,0.000000,,2013-02-13 04:01:00,
2013-02-12 23:11:00,51.0,42.0,-100.00,WNW,293,1.0,2.0,70,0.00,,,0.00,0.000000,,2013-02-13 04:11:00,
2013-02-12 23:21:00,51.0,42.0,-100.00,WNW,293,1.0,2.0,70,0.00,,,0.00,0.000000,,2013-02-13 04:21:00,
2013-02-12 23:52:00,51.0,42.0,-100.00,West,267,2.0,4.0,71,0.01,,,0.01,0.000000,,2013-02-13 04:52:00,